createdAt,value
2022-12-03T00:00:30.904Z,7.93
2022-12-03T00:02:57.476Z,7.70
2022-12-03T00:05:24.066Z,7.27
2022-12-03T00:07:50.515Z,7.07
2022-12-03T00:10:17.210Z,7.30
2022-12-03T00:12:43.657Z,7.40
2022-12-03T00:15:11.050Z,7.07
2022-12-03T00:17:38.104Z,7.67
2022-12-03T00:20:07.607Z,8.00
2022-12-03T00:22:34.162Z,7.60
2022-12-03T00:25:00.751Z,7.77
2022-12-03T00:27:27.227Z,6.30
2022-12-03T00:29:53.709Z,8.00
2022-12-03T00:32:20.146Z,8.33
2022-12-03T00:34:46.631Z,7.50
2022-12-03T00:37:13.101Z,8.20
2022-12-03T00:39:39.542Z,8.60
2022-12-03T00:42:06.079Z,7.93
2022-12-03T00:44:32.514Z,7.33
2022-12-03T00:46:59.069Z,9.37
2022-12-03T00:49:25.587Z,8.20
2022-12-03T00:51:52.407Z,8.17
2022-12-03T00:54:18.829Z,8.53
2022-12-03T00:56:45.312Z,8.03
2022-12-03T00:59:11.986Z,8.77
2022-12-03T01:01:38.516Z,8.67
2022-12-03T01:04:05.255Z,9.00
2022-12-03T01:06:31.674Z,9.13
2022-12-03T01:08:58.117Z,9.07
2022-12-03T01:11:40.690Z,9.13
2022-12-03T01:14:13.933Z,9.80
2022-12-03T01:16:40.576Z,9.20
2022-12-03T01:19:07.847Z,9.30
2022-12-03T01:21:34.987Z,9.13
2022-12-03T01:24:01.866Z,9.03
2022-12-03T01:26:28.347Z,9.33
2022-12-03T01:28:54.895Z,8.47
2022-12-03T01:31:39.872Z,9.30
2022-12-03T01:34:06.851Z,9.93
2022-12-03T01:36:36.375Z,9.13
2022-12-03T01:39:04.063Z,9.37
2022-12-03T01:41:32.046Z,10.00
2022-12-03T01:43:59.301Z,9.50
2022-12-03T01:46:34.658Z,8.67
2022-12-03T01:49:01.157Z,9.90
2022-12-03T01:51:27.598Z,8.93
2022-12-03T01:53:54.139Z,8.67
2022-12-03T01:56:20.672Z,8.70
2022-12-03T01:58:47.610Z,9.03
2022-12-03T02:01:17.603Z,9.83
2022-12-03T02:03:45.729Z,9.67
2022-12-03T02:06:16.936Z,8.43
2022-12-03T02:08:44.275Z,9.03
2022-12-03T02:11:27.063Z,9.47
2022-12-03T02:13:56.962Z,9.20
2022-12-03T02:16:23.756Z,9.60
2022-12-03T02:18:50.340Z,9.30
2022-12-03T02:21:36.626Z,8.87
2022-12-03T02:24:19.552Z,7.83
2022-12-03T02:26:46.129Z,8.50
2022-12-03T02:29:12.838Z,8.30
2022-12-03T02:31:39.412Z,8.37
2022-12-03T02:34:07.290Z,9.93
2022-12-03T02:36:35.375Z,9.33
2022-12-03T02:39:03.006Z,10.40
2022-12-03T02:41:47.989Z,9.50
2022-12-03T02:44:14.563Z,9.90
2022-12-03T02:46:41.354Z,8.67
2022-12-03T02:49:08.067Z,11.00
2022-12-03T02:51:34.876Z,9.93
2022-12-03T02:54:02.895Z,10.17
2022-12-03T02:56:32.457Z,9.57
2022-12-03T02:59:03.236Z,8.57
2022-12-03T03:01:30.023Z,9.10
2022-12-03T03:03:57.749Z,10.07
2022-12-03T03:06:24.396Z,9.00
2022-12-03T03:08:51.319Z,9.53
2022-12-03T03:11:17.890Z,9.40
2022-12-03T03:13:44.432Z,9.67
2022-12-03T03:16:10.934Z,9.60
2022-12-03T03:18:38.093Z,9.33
2022-12-03T03:21:05.331Z,8.90
2022-12-03T03:23:31.840Z,11.10
2022-12-03T03:26:13.056Z,9.53
2022-12-03T03:28:43.932Z,8.53
2022-12-03T03:31:12.795Z,9.77
2022-12-03T03:33:41.595Z,10.10
2022-12-03T03:36:08.886Z,9.67
2022-12-03T03:38:36.774Z,10.63
2022-12-03T03:41:05.858Z,9.27
2022-12-03T03:43:34.886Z,10.53
2022-12-03T03:46:03.503Z,9.50
2022-12-03T03:48:30.464Z,10.57
2022-12-03T03:50:57.264Z,9.23
2022-12-03T03:53:24.615Z,5.57
2022-12-03T03:55:51.400Z,9.50
2022-12-03T03:58:18.072Z,9.60
2022-12-03T04:00:45.471Z,10.60
2022-12-03T04:03:12.668Z,10.63
2022-12-03T04:05:39.448Z,9.13
2022-12-03T04:08:05.978Z,10.73
2022-12-03T04:10:51.069Z,10.53
2022-12-03T04:13:17.450Z,9.77
2022-12-03T04:15:43.908Z,10.33
2022-12-03T04:18:29.132Z,10.00
2022-12-03T04:21:15.512Z,9.50
2022-12-03T04:23:41.933Z,7.43
2022-12-03T04:26:27.012Z,10.37
2022-12-03T04:28:53.937Z,8.93
2022-12-03T04:31:39.020Z,9.40
2022-12-03T04:34:24.232Z,8.97
2022-12-03T04:36:50.967Z,9.40
2022-12-03T04:39:17.513Z,9.03
2022-12-03T04:41:43.980Z,9.90
2022-12-03T04:44:29.152Z,9.47
2022-12-03T04:46:55.626Z,9.37
2022-12-03T04:49:22.428Z,9.50
2022-12-03T04:51:48.854Z,9.20
2022-12-03T04:54:15.557Z,8.60
2022-12-03T04:56:42.029Z,9.87
2022-12-03T04:59:14.223Z,8.53
2022-12-03T05:01:42.417Z,8.37
2022-12-03T05:04:08.909Z,7.40
2022-12-03T05:06:35.440Z,8.30
2022-12-03T05:09:02.063Z,7.00
2022-12-03T05:11:28.538Z,8.10
2022-12-03T05:13:54.983Z,8.87
2022-12-03T05:16:21.517Z,7.67
2022-12-03T05:18:48.050Z,8.90
2022-12-03T05:21:14.474Z,7.80
2022-12-03T05:23:42.331Z,7.97
2022-12-03T05:26:08.758Z,7.97
2022-12-03T05:28:35.396Z,9.07
2022-12-03T05:31:02.044Z,7.60
2022-12-03T05:33:28.597Z,8.03
2022-12-03T05:35:55.315Z,9.13
2022-12-03T05:38:21.822Z,8.20
2022-12-03T05:40:48.263Z,8.70
2022-12-03T05:43:14.687Z,9.30
2022-12-03T05:45:43.011Z,8.80
2022-12-03T05:48:12.247Z,8.47
2022-12-03T05:50:41.006Z,8.10
2022-12-03T05:53:07.499Z,8.93
2022-12-03T05:55:34.056Z,8.80
2022-12-03T05:58:00.565Z,8.80
2022-12-03T06:00:34.597Z,8.63
2022-12-03T06:03:07.693Z,8.93
2022-12-03T06:05:34.730Z,8.53
2022-12-03T06:08:01.690Z,8.90
2022-12-03T06:10:28.641Z,8.13
2022-12-03T06:12:55.607Z,11.00
2022-12-03T06:15:22.454Z,10.03
2022-12-03T06:17:48.935Z,9.30
2022-12-03T06:20:18.226Z,10.07
2022-12-03T06:22:45.233Z,8.93
2022-12-03T06:25:12.652Z,9.50
2022-12-03T06:27:39.198Z,10.13
2022-12-03T06:30:08.838Z,9.63
2022-12-03T06:32:35.539Z,10.10
2022-12-03T06:35:02.143Z,10.07
2022-12-03T06:37:28.661Z,9.13
2022-12-03T06:39:55.142Z,8.83
2022-12-03T06:42:21.541Z,8.90
2022-12-03T06:44:48.050Z,10.30
2022-12-03T06:47:14.536Z,10.00
2022-12-03T06:49:41.073Z,8.67
2022-12-03T06:52:07.661Z,9.40
2022-12-03T06:54:34.205Z,9.87
2022-12-03T06:57:00.682Z,10.13
2022-12-03T06:59:27.310Z,10.37
2022-12-03T07:01:53.849Z,8.87
2022-12-03T07:04:20.438Z,9.37
2022-12-03T07:06:46.849Z,10.10
2022-12-03T07:09:13.309Z,10.03
2022-12-03T07:11:40.594Z,9.83
2022-12-03T07:14:09.190Z,9.63
2022-12-03T07:16:36.118Z,9.33
2022-12-03T07:19:03.740Z,9.93
2022-12-03T07:21:30.505Z,9.53
2022-12-03T07:23:57.107Z,9.13
2022-12-03T07:26:23.617Z,9.87
2022-12-03T07:28:50.104Z,9.93
2022-12-03T07:31:16.647Z,8.30
2022-12-03T07:33:43.145Z,9.23
2022-12-03T07:36:10.191Z,9.13
2022-12-03T07:38:37.114Z,9.33
2022-12-03T07:41:03.774Z,10.17
2022-12-03T07:43:30.229Z,9.63
2022-12-03T07:45:56.737Z,9.67
2022-12-03T07:48:23.213Z,9.23
2022-12-03T07:50:49.816Z,10.77
2022-12-03T07:53:16.307Z,9.00
2022-12-03T07:55:42.732Z,9.77
2022-12-03T07:58:09.388Z,10.10
2022-12-03T08:00:35.936Z,11.43
2022-12-03T08:03:02.507Z,10.73
2022-12-03T08:05:29.867Z,11.23
2022-12-03T08:07:56.651Z,10.43
2022-12-03T08:10:25.196Z,10.33
2022-12-03T08:12:51.776Z,9.77
2022-12-03T08:15:21.140Z,11.13
2022-12-03T08:17:54.858Z,10.93
2022-12-03T08:20:34.882Z,10.60
2022-12-03T08:23:06.743Z,10.37
2022-12-03T08:25:33.839Z,10.73
2022-12-03T08:28:14.233Z,10.10
2022-12-03T08:30:42.853Z,10.33
2022-12-03T08:33:20.350Z,10.53
2022-12-03T08:35:52.856Z,11.33
2022-12-03T08:38:23.058Z,11.40
2022-12-03T08:40:51.699Z,11.53
2022-12-03T08:43:24.606Z,10.30
2022-12-03T08:45:56.203Z,11.77
2022-12-03T08:48:25.888Z,9.97
2022-12-03T08:50:55.557Z,9.80
2022-12-03T08:53:38.177Z,11.43
2022-12-03T08:56:06.299Z,11.73
2022-12-03T08:58:48.422Z,11.10
2022-12-03T09:01:37.118Z,11.50
2022-12-03T09:04:23.898Z,11.07
2022-12-03T09:06:51.778Z,12.27
2022-12-03T09:09:18.958Z,10.83
2022-12-03T09:11:45.591Z,11.20
2022-12-03T09:14:18.101Z,10.63
2022-12-03T09:16:45.200Z,12.27
2022-12-03T09:19:11.795Z,11.13
2022-12-03T09:21:38.185Z,10.97
2022-12-03T09:24:04.911Z,9.90
2022-12-03T09:26:31.484Z,9.57
2022-12-03T09:28:57.976Z,12.07
2022-12-03T09:31:24.520Z,10.53
2022-12-03T09:33:51.062Z,11.10
2022-12-03T09:36:17.603Z,9.73
2022-12-03T09:38:47.580Z,12.53
2022-12-03T09:41:14.870Z,9.47
2022-12-03T09:44:03.395Z,12.47
2022-12-03T09:46:29.771Z,10.83
2022-12-03T09:48:56.704Z,10.73
2022-12-03T09:51:30.191Z,10.40
2022-12-03T09:53:59.235Z,9.93
2022-12-03T09:56:25.720Z,11.67
2022-12-03T09:58:52.590Z,11.50
2022-12-03T10:01:19.167Z,10.83
2022-12-03T10:03:49.167Z,9.97
2022-12-03T10:06:21.236Z,11.27
2022-12-03T10:08:50.988Z,10.87
2022-12-03T10:11:20.212Z,9.90
2022-12-03T10:13:47.500Z,9.70
2022-12-03T10:16:18.227Z,9.70
2022-12-03T10:18:48.616Z,11.00
2022-12-03T10:21:19.281Z,9.87
2022-12-03T10:23:48.474Z,11.10
2022-12-03T10:26:18.744Z,8.70
2022-12-03T10:28:47.470Z,9.90
2022-12-03T10:31:14.779Z,9.40
2022-12-03T10:33:44.869Z,9.03
2022-12-03T10:36:14.028Z,11.03
2022-12-03T10:38:40.640Z,9.03
2022-12-03T10:41:28.088Z,10.07
2022-12-03T10:43:54.586Z,8.77
2022-12-03T10:46:22.475Z,9.93
2022-12-03T10:49:09.296Z,9.20
2022-12-03T10:51:37.949Z,9.10
2022-12-03T10:54:14.418Z,9.53
2022-12-03T10:56:40.974Z,8.17
2022-12-03T10:59:15.747Z,8.40
2022-12-03T11:01:42.281Z,8.37
2022-12-03T11:04:18.931Z,8.17
2022-12-03T11:06:45.429Z,8.70
2022-12-03T11:09:19.814Z,8.90
2022-12-03T11:11:46.532Z,6.20
2022-12-03T11:14:15.771Z,8.37
2022-12-03T11:16:46.356Z,8.27
2022-12-03T11:19:12.813Z,8.30
2022-12-03T11:22:07.091Z,7.37
2022-12-03T11:24:36.482Z,8.00
2022-12-03T11:27:03.046Z,8.33
2022-12-03T11:29:46.776Z,7.67
2022-12-03T11:32:37.885Z,7.93
2022-12-03T11:35:11.655Z,8.53
2022-12-03T11:37:38.502Z,8.03
2022-12-03T11:40:26.632Z,8.17
2022-12-03T11:42:53.083Z,8.43
2022-12-03T11:45:30.420Z,7.53
2022-12-03T11:47:59.950Z,8.23
2022-12-03T11:50:37.562Z,8.43
2022-12-03T11:53:23.584Z,8.90
2022-12-03T11:56:06.596Z,6.90
2022-12-03T11:58:34.572Z,8.67
2022-12-03T12:01:03.693Z,6.70
2022-12-03T12:03:41.708Z,7.33
2022-12-03T12:06:10.795Z,6.43
2022-12-03T12:08:41.044Z,8.23
2022-12-03T12:11:18.755Z,7.17
2022-12-03T12:13:45.155Z,7.23
2022-12-03T12:16:11.845Z,7.53
2022-12-03T12:18:38.310Z,6.97
2022-12-03T12:21:41.105Z,6.93
2022-12-03T12:24:29.668Z,6.70
2022-12-03T12:26:58.329Z,7.23
2022-12-03T12:29:25.206Z,6.47
2022-12-03T12:31:57.640Z,7.43
2022-12-03T12:34:25.431Z,8.00
2022-12-03T12:36:54.537Z,6.47
2022-12-03T12:39:21.089Z,6.30
2022-12-03T12:41:49.271Z,6.93
2022-12-03T12:44:15.858Z,7.10
2022-12-03T12:46:48.814Z,7.00
2022-12-03T12:49:15.831Z,7.20
2022-12-03T12:51:46.947Z,6.73
2022-12-03T12:54:15.844Z,6.80
2022-12-03T12:56:49.806Z,6.73
2022-12-03T12:59:21.477Z,7.37
2022-12-03T13:01:49.904Z,7.47
2022-12-03T13:04:21.628Z,6.17
2022-12-03T13:06:51.764Z,7.27
2022-12-03T13:09:24.272Z,8.43
2022-12-03T13:11:54.464Z,7.07
2022-12-03T13:14:26.683Z,7.10
2022-12-03T13:16:56.398Z,7.63
2022-12-03T13:19:28.287Z,7.93
2022-12-03T13:21:57.204Z,7.43
2022-12-03T13:24:38.705Z,6.90
2022-12-03T13:27:17.489Z,9.20
2022-12-03T13:29:59.167Z,9.40
2022-12-03T13:32:34.760Z,8.20
2022-12-03T13:35:11.357Z,8.70
2022-12-03T13:37:38.500Z,10.27
2022-12-03T13:40:31.194Z,10.33
2022-12-03T13:42:58.775Z,10.10
2022-12-03T13:45:45.040Z,10.23
2022-12-03T13:48:35.618Z,10.37
2022-12-03T13:51:19.199Z,10.63
2022-12-03T13:53:45.713Z,9.27
2022-12-03T13:56:32.368Z,11.17
2022-12-03T13:59:01.184Z,9.53
2022-12-03T14:01:28.510Z,10.37
2022-12-03T14:03:55.358Z,9.90
2022-12-03T14:06:22.017Z,9.67
2022-12-03T14:08:48.784Z,10.67
2022-12-03T14:11:33.658Z,9.43
2022-12-03T14:14:00.867Z,10.03
2022-12-03T14:16:27.390Z,9.83
2022-12-03T14:18:53.918Z,11.00
2022-12-03T14:21:20.364Z,8.87
2022-12-03T14:23:46.853Z,8.77
2022-12-03T14:26:13.334Z,9.70
2022-12-03T14:28:39.868Z,9.47
2022-12-03T14:31:06.418Z,10.77
2022-12-03T14:33:32.909Z,12.30
2022-12-03T14:35:59.362Z,10.27
2022-12-03T14:38:25.763Z,11.43
2022-12-03T14:40:52.206Z,8.43
2022-12-03T14:43:18.670Z,11.67
2022-12-03T14:45:45.237Z,10.60
2022-12-03T14:48:11.736Z,11.27
2022-12-03T14:50:38.227Z,10.40
2022-12-03T14:53:04.635Z,9.83
2022-12-03T14:55:31.128Z,9.27
2022-12-03T14:57:57.738Z,10.63
2022-12-03T15:00:24.388Z,10.03
2022-12-03T15:02:50.837Z,9.73
2022-12-03T15:05:18.131Z,8.73
2022-12-03T15:07:46.572Z,9.70
2022-12-03T15:10:13.065Z,10.17
2022-12-03T15:12:39.626Z,9.13
2022-12-03T15:15:06.769Z,11.03
2022-12-03T15:17:33.241Z,10.20
2022-12-03T15:19:59.831Z,10.17
2022-12-03T15:22:26.291Z,9.40
2022-12-03T15:24:52.815Z,9.97
2022-12-03T15:27:19.586Z,9.23
2022-12-03T15:29:46.047Z,9.33
2022-12-03T15:32:12.512Z,8.90
2022-12-03T15:34:38.984Z,9.53
2022-12-03T15:37:05.497Z,9.90
2022-12-03T15:39:32.932Z,11.67
2022-12-03T15:41:59.402Z,10.73
2022-12-03T15:44:25.847Z,10.07
2022-12-03T15:46:52.350Z,8.97
2022-12-03T15:49:18.935Z,8.63
2022-12-03T15:51:45.355Z,8.77
2022-12-03T15:54:12.537Z,28.03
2022-12-03T15:56:39.084Z,48.97
2022-12-03T15:59:05.521Z,12.17
2022-12-03T16:01:32.133Z,9.40
2022-12-03T16:03:58.705Z,10.90
2022-12-03T16:06:25.202Z,10.43
2022-12-03T16:08:51.651Z,9.47
2022-12-03T16:11:18.110Z,9.07
2022-12-03T16:13:44.697Z,12.43
2022-12-03T16:16:11.211Z,9.20
2022-12-03T16:18:37.763Z,9.90
2022-12-03T16:21:04.362Z,8.77
2022-12-03T16:23:30.789Z,10.67
2022-12-03T16:25:57.221Z,10.60
2022-12-03T16:28:23.689Z,10.23
2022-12-03T16:30:50.260Z,10.10
2022-12-03T16:33:17.736Z,10.60
2022-12-03T16:35:46.559Z,10.53
2022-12-03T16:38:13.056Z,9.17
2022-12-03T16:40:39.466Z,9.83
2022-12-03T16:43:07.040Z,10.57
2022-12-03T16:45:50.898Z,10.53
2022-12-03T16:48:18.294Z,9.97
2022-12-03T16:50:44.832Z,10.03
2022-12-03T16:53:11.921Z,10.33
2022-12-03T16:55:38.538Z,10.97
2022-12-03T16:58:05.075Z,11.10
2022-12-03T17:00:31.506Z,10.30
2022-12-03T17:02:58.369Z,10.67
2022-12-03T17:05:25.045Z,10.80
2022-12-03T17:07:51.550Z,9.77
2022-12-03T17:10:18.277Z,11.90
2022-12-03T17:13:11.300Z,11.07
2022-12-03T17:15:31.907Z,9.77
2022-12-03T17:17:58.889Z,10.90
2022-12-03T17:20:25.585Z,11.07
2022-12-03T17:22:51.991Z,11.07
2022-12-03T17:25:18.451Z,11.47
2022-12-03T17:27:45.514Z,11.90
2022-12-03T17:30:13.507Z,11.40
2022-12-03T17:32:40.347Z,11.47
2022-12-03T17:35:07.716Z,11.20
2022-12-03T17:37:34.801Z,12.20
2022-12-03T17:40:01.503Z,11.73
2022-12-03T17:42:28.015Z,12.07
2022-12-03T17:44:54.416Z,9.57
2022-12-03T17:47:20.896Z,13.27
2022-12-03T17:49:47.719Z,11.63
2022-12-03T17:52:14.185Z,12.93
2022-12-03T17:55:08.406Z,11.43
2022-12-03T17:57:27.088Z,11.60
2022-12-03T17:59:53.772Z,12.37
2022-12-03T18:02:20.446Z,12.50
2022-12-03T18:04:46.893Z,11.17
2022-12-03T18:07:13.409Z,12.27
2022-12-03T18:09:39.879Z,12.80
2022-12-03T18:12:06.717Z,11.23
2022-12-03T18:14:33.266Z,11.47
2022-12-03T18:16:59.693Z,11.40
2022-12-03T18:19:26.324Z,13.20
2022-12-03T18:21:53.958Z,11.53
2022-12-03T18:24:20.744Z,12.53
2022-12-03T18:26:47.192Z,11.80
2022-12-03T18:29:13.697Z,13.33
2022-12-03T18:31:40.329Z,12.30
2022-12-03T18:34:06.774Z,12.53
2022-12-03T18:36:36.302Z,13.77
2022-12-03T18:39:05.997Z,11.53
2022-12-03T18:41:33.431Z,12.63
2022-12-03T18:44:03.413Z,13.17
2022-12-03T18:46:53.356Z,12.30
2022-12-03T18:49:16.517Z,12.40
2022-12-03T18:51:43.024Z,12.80
2022-12-03T18:54:13.375Z,13.30
2022-12-03T18:56:41.010Z,12.33
2022-12-03T18:59:07.754Z,9.83
2022-12-03T19:01:34.816Z,11.27
2022-12-03T19:04:01.581Z,11.70
2022-12-03T19:06:30.758Z,11.87
2022-12-03T19:08:57.766Z,13.27
2022-12-03T19:11:24.729Z,11.17
2022-12-03T19:13:51.932Z,13.63
2022-12-03T19:16:19.011Z,13.67
2022-12-03T19:18:48.596Z,11.63
2022-12-03T19:21:16.956Z,13.27
2022-12-03T19:24:04.265Z,12.73
2022-12-03T19:26:30.624Z,12.87
2022-12-03T19:28:57.198Z,7.33
2022-12-03T19:31:23.802Z,11.80
2022-12-03T19:33:51.744Z,11.87
2022-12-03T19:36:23.801Z,10.90
2022-12-03T19:38:56.694Z,12.40
2022-12-03T19:41:26.614Z,12.43
2022-12-03T19:43:54.669Z,11.20
2022-12-03T19:46:23.776Z,13.07
2022-12-03T19:48:50.403Z,12.03
2022-12-03T19:51:33.470Z,12.97
2022-12-03T19:54:01.721Z,12.23
2022-12-03T19:56:30.224Z,12.13
2022-12-03T19:58:56.870Z,10.77
2022-12-03T20:01:29.024Z,10.20
2022-12-03T20:03:57.475Z,12.57
2022-12-03T20:06:27.222Z,11.80
2022-12-03T20:08:57.769Z,13.53
2022-12-03T20:11:27.217Z,12.43
2022-12-03T20:13:58.951Z,11.60
2022-12-03T20:16:27.066Z,11.93
2022-12-03T20:18:57.574Z,11.43
2022-12-03T20:21:24.658Z,12.00
2022-12-03T20:23:51.230Z,12.30
2022-12-03T20:26:19.540Z,12.33
2022-12-03T20:28:47.987Z,11.90
2022-12-03T20:31:19.891Z,10.50
2022-12-03T20:33:49.510Z,12.70
2022-12-03T20:36:20.975Z,11.93
2022-12-03T20:38:47.519Z,10.63
2022-12-03T20:41:18.412Z,11.13
2022-12-03T20:43:45.858Z,12.70
2022-12-03T20:46:27.426Z,11.07
2022-12-03T20:48:55.174Z,11.83
2022-12-03T20:51:24.421Z,11.17
2022-12-03T20:53:51.323Z,10.90
2022-12-03T20:56:21.488Z,11.93
2022-12-03T20:58:49.011Z,11.97
2022-12-03T21:01:18.993Z,11.83
2022-12-03T21:03:46.541Z,13.17
2022-12-03T21:06:13.568Z,11.93
2022-12-03T21:08:42.460Z,11.80
2022-12-03T21:11:11.657Z,11.73
2022-12-03T21:13:41.292Z,12.13
2022-12-03T21:16:10.113Z,11.70
2022-12-03T21:18:36.901Z,12.67
2022-12-03T21:21:03.731Z,12.10
2022-12-03T21:23:31.445Z,11.93
2022-12-03T21:26:15.787Z,12.43
2022-12-03T21:28:44.305Z,11.83
2022-12-03T21:31:13.904Z,12.80
2022-12-03T21:33:40.900Z,11.97
2022-12-03T21:36:08.225Z,10.70
2022-12-03T21:38:35.532Z,13.60
2022-12-03T21:41:02.294Z,14.30
2022-12-03T21:43:29.268Z,12.90
2022-12-03T21:45:55.803Z,12.87
2022-12-03T21:48:22.519Z,11.80
2022-12-03T21:51:18.640Z,10.83
2022-12-03T21:53:46.132Z,11.77
2022-12-03T21:56:15.231Z,12.07
2022-12-03T21:58:42.724Z,12.23
2022-12-03T22:01:13.502Z,12.83
2022-12-03T22:03:40.452Z,11.77
2022-12-03T22:06:07.199Z,13.07
2022-12-03T22:08:33.679Z,11.47
2022-12-03T22:11:04.604Z,12.73
2022-12-03T22:13:31.152Z,12.60
2022-12-03T22:15:57.657Z,13.37
2022-12-03T22:18:24.171Z,13.57
2022-12-03T22:20:51.217Z,13.30
2022-12-03T22:23:17.740Z,13.50
2022-12-03T22:25:44.156Z,13.53
2022-12-03T22:28:10.621Z,13.93
2022-12-03T22:30:39.598Z,13.10
2022-12-03T22:33:06.085Z,12.93
2022-12-03T22:35:32.537Z,13.20
2022-12-03T22:37:58.914Z,12.67
2022-12-03T22:40:25.456Z,13.63
2022-12-03T22:42:51.975Z,13.40
2022-12-03T22:45:18.458Z,13.07
2022-12-03T22:47:44.877Z,13.63
2022-12-03T22:50:11.548Z,13.63
2022-12-03T22:52:38.014Z,13.53
2022-12-03T22:55:04.831Z,15.27
2022-12-03T22:57:31.733Z,13.63
2022-12-03T22:59:58.210Z,12.67
2022-12-03T23:02:24.702Z,12.43
2022-12-03T23:04:51.225Z,13.40
2022-12-03T23:07:17.719Z,12.17
2022-12-03T23:09:44.207Z,14.00
2022-12-03T23:12:10.643Z,14.43
2022-12-03T23:14:37.210Z,14.40
2022-12-03T23:17:04.658Z,13.07
2022-12-03T23:19:31.108Z,14.10
2022-12-03T23:21:58.136Z,14.87
2022-12-03T23:24:24.708Z,12.63
2022-12-03T23:26:51.201Z,15.10
2022-12-03T23:29:17.690Z,15.07
2022-12-03T23:31:44.235Z,14.40
2022-12-03T23:34:10.820Z,13.17
2022-12-03T23:36:37.563Z,14.87
2022-12-03T23:39:04.188Z,14.50
2022-12-03T23:41:30.624Z,14.60
2022-12-03T23:43:57.374Z,13.57
2022-12-03T23:46:27.248Z,13.87
2022-12-03T23:48:53.903Z,13.43
2022-12-03T23:51:24.928Z,14.00
2022-12-03T23:53:53.064Z,13.77
2022-12-03T23:56:24.119Z,14.77
2022-12-03T23:58:50.632Z,14.73
